Time;durP1;ratioP1;P1;durP2;ratioP2;P2;SDS_P1;SDS_P2;PMS_P1;PMS_P2;Temp;Humidity;BMP_temperature;BMP_pressure;BME280_temperature;BME280_humidity;BME280_pressure;Samples;Min_cycle;Max_cycle;Signal;HPM_P1;HPM_P2
2022/03/07 00:02:11;;;;;;;85.75;49.38;;;102.80;2227.20;;;;;;5070094;28;20029;-58
2022/03/07 00:04:37;;;;;;;82.47;49.78;;;102.90;2227.20;;;;;;5070203;28;20098;-57
2022/03/07 00:07:03;;;;;;;76.68;46.08;;;102.90;2227.20;;;;;;5069766;28;20025;-57
2022/03/07 00:09:29;;;;;;;71.70;46.88;;;102.90;2227.20;;;;;;5069922;28;20029;-56
2022/03/07 00:11:54;;;;;;;82.35;48.53;;;102.90;2227.20;;;;;;5069847;28;20466;-57
2022/03/07 00:14:20;;;;;;;68.43;42.88;;;102.90;2227.20;;;;;;5069542;28;20024;-57
2022/03/07 00:16:46;;;;;;;71.70;44.92;;;102.90;2227.20;;;;;;5070164;28;20056;-56
2022/03/07 00:19:12;;;;;;;68.68;43.25;;;102.80;2227.20;;;;;;5070134;28;20118;-57
2022/03/07 00:21:39;;;;;;;67.25;42.05;;;102.60;2227.20;;;;;;5070017;28;20470;-56
2022/03/07 00:24:06;;;;;;;58.28;37.00;;;102.50;2227.20;;;;;;5069867;28;20383;-57
2022/03/07 00:26:32;;;;;;;59.13;33.10;;;102.40;2227.20;;;;;;5069484;28;20033;-56
2022/03/07 00:28:58;;;;;;;54.67;34.42;;;102.50;2227.20;;;;;;5069644;28;20029;-57
2022/03/07 00:31:23;;;;;;;58.55;33.63;;;102.40;2227.20;;;;;;5069395;28;20139;-56
2022/03/07 00:33:50;;;;;;;59.28;36.60;;;102.40;2227.20;;;;;;5069660;28;20046;-57
2022/03/07 00:36:17;;;;;;;58.17;33.05;;;102.40;2227.20;;;;;;5069986;28;20024;-55
2022/03/07 00:38:42;;;;;;;47.00;29.95;;;102.50;2227.20;;;;;;5069945;28;20378;-59
2022/03/07 00:41:09;;;;;;;49.72;31.45;;;77.70;2227.20;;;;;;5069660;28;20028;-59
2022/03/07 00:43:35;;;;;;;51.22;31.80;;;102.40;2227.20;;;;;;5069487;28;20028;-57
2022/03/07 00:46:01;;;;;;;42.40;29.45;;;77.70;2227.20;;;;;;5069478;28;20028;-56
2022/03/07 00:48:27;;;;;;;44.25;28.23;;;77.70;2227.20;;;;;;5069819;28;20082;-56
2022/03/07 00:50:53;;;;;;;53.85;34.42;;;102.40;2227.20;;;;;;5069403;28;20040;-59
2022/03/07 00:53:24;;;;;;;39.38;28.73;;;102.50;2227.20;;;;;;5069562;28;20462;-57
2022/03/07 00:55:51;;;;;;;41.53;25.75;;;102.50;2227.20;;;;;;5069365;28;20037;-56
2022/03/07 00:58:17;;;;;;;41.03;27.05;;;102.60;2227.20;;;;;;5069474;28;20534;-57
2022/03/07 01:00:44;;;;;;;41.25;25.45;;;102.40;2227.20;;;;;;5069684;28;20363;-58
2022/03/07 01:03:12;;;;;;;39.67;22.73;;;102.50;2227.20;;;;;;5072254;28;20054;-57
2022/03/07 01:05:39;;;;;;;35.65;23.50;;;102.50;2227.20;;;;;;5073212;28;20033;-56
2022/03/07 01:08:06;;;;;;;33.80;21.08;;;102.50;2227.20;;;;;;5073164;28;20081;-57
2022/03/07 01:10:32;;;;;;;35.63;22.17;;;102.60;2227.20;;;;;;5072839;28;20477;-56
2022/03/07 01:12:58;;;;;;;38.05;22.45;;;102.60;2227.20;;;;;;5072964;28;20040;-57
2022/03/07 01:15:24;;;;;;;34.97;22.70;;;102.60;2227.20;;;;;;5072666;28;20363;-57
2022/03/07 01:17:49;;;;;;;33.92;21.35;;;102.60;2227.20;;;;;;5073077;28;20413;-57
2022/03/07 01:20:15;;;;;;;31.83;18.65;;;102.50;2227.20;;;;;;5073125;28;20552;-57
2022/03/07 01:22:41;;;;;;;34.25;21.05;;;102.60;2227.20;;;;;;5072626;28;20020;-57
2022/03/07 01:25:08;;;;;;;32.67;20.40;;;102.60;2227.20;;;;;;5071240;28;20132;-56
2022/03/07 01:27:34;;;;;;;31.67;20.83;;;102.70;2227.20;;;;;;5072323;28;20040;-56
2022/03/07 01:30:00;;;;;;;30.67;20.73;;;102.70;2227.20;;;;;;5072112;28;20465;-57
2022/03/07 01:32:26;;;;;;;33.63;20.27;;;102.50;2227.20;;;;;;5072714;28;20036;-56
2022/03/07 01:34:52;;;;;;;28.73;20.48;;;102.60;2227.20;;;;;;5072246;28;20473;-56
2022/03/07 01:37:18;;;;;;;34.80;19.90;;;102.60;2227.20;;;;;;5072746;28;20074;-57
2022/03/07 01:39:44;;;;;;;31.63;20.05;;;102.60;2227.20;;;;;;5072409;28;20584;-56
2022/03/07 01:42:10;;;;;;;26.33;19.25;;;102.60;2227.20;;;;;;5072454;28;20059;-56
2022/03/07 01:44:37;;;;;;;29.80;17.52;;;102.60;2227.20;;;;;;5072281;28;20467;-56
2022/03/07 01:47:05;;;;;;;29.90;18.90;;;102.60;2227.20;;;;;;5072392;28;20025;-56
2022/03/07 01:49:32;;;;;;;30.27;20.15;;;102.60;2227.20;;;;;;5072233;28;20107;-56
2022/03/07 01:51:58;;;;;;;35.72;19.90;;;102.60;2227.20;;;;;;5072241;28;20064;-56
2022/03/07 01:54:24;;;;;;;30.60;19.70;;;102.60;2227.20;;;;;;5072139;28;20059;-59
2022/03/07 01:56:51;;;;;;;30.77;18.90;;;102.50;2227.20;;;;;;5071920;28;20071;-57
2022/03/07 01:59:27;;;;;;;29.77;18.58;;;102.40;2227.20;;;;;;5072219;28;20024;-56
2022/03/07 02:01:54;;;;;;;27.98;18.55;;;102.50;2227.20;;;;;;5072049;28;20463;-56
2022/03/07 02:04:20;;;;;;;30.00;17.60;;;102.60;2227.20;;;;;;5071989;28;20029;-56
2022/03/07 02:06:47;;;;;;;26.60;17.92;;;102.60;2227.20;;;;;;5072026;28;20439;-56
2022/03/07 02:09:14;;;;;;;26.30;17.70;;;102.50;2227.20;;;;;;5072010;28;20082;-56
2022/03/07 02:11:40;;;;;;;27.52;16.98;;;102.40;2227.20;;;;;;5071797;28;20187;-57
2022/03/07 02:14:11;;;;;;;28.20;17.25;;;102.50;2227.20;;;;;;5070789;28;20493;-57
2022/03/07 02:16:37;;;;;;;27.45;17.00;;;102.50;2227.20;;;;;;5071741;28;20043;-56
2022/03/07 02:19:03;;;;;;;31.73;18.80;;;102.50;2227.20;;;;;;5071535;28;20033;-57
2022/03/07 02:21:33;;;;;;;29.70;18.77;;;102.50;2227.20;;;;;;5071542;28;20035;-57
2022/03/07 02:23:59;;;;;;;27.05;16.65;;;102.50;2227.20;;;;;;5071743;28;20110;-57
2022/03/07 02:26:24;;;;;;;25.95;17.45;;;102.50;2227.20;;;;;;5071610;28;20103;-56
2022/03/07 02:28:50;;;;;;;26.88;17.85;;;102.40;2227.20;;;;;;5071163;28;20051;-57
2022/03/07 02:31:18;;;;;;;29.25;16.73;;;102.40;2227.20;;;;;;5071347;28;20094;-56
2022/03/07 02:33:44;;;;;;;28.98;17.95;;;102.40;2227.20;;;;;;5071729;28;20024;-56
2022/03/07 02:36:10;;;;;;;30.30;18.52;;;102.40;2227.20;;;;;;5071303;28;20028;-57
2022/03/07 02:38:36;;;;;;;28.30;16.60;;;102.40;2227.20;;;;;;5071540;28;20047;-57
2022/03/07 02:41:02;;;;;;;27.73;17.90;;;77.70;2227.20;;;;;;5071221;28;20028;-57
2022/03/07 02:43:28;;;;;;;34.10;19.02;;;77.70;2227.20;;;;;;5071266;28;20025;-57
2022/03/07 02:45:55;;;;;;;30.70;19.05;;;77.60;2227.20;;;;;;5071134;28;20032;-57
2022/03/07 02:48:21;;;;;;;23.63;16.08;;;77.60;2227.20;;;;;;5071044;28;20024;-57
2022/03/07 02:50:47;;;;;;;29.90;17.88;;;77.60;2227.20;;;;;;5071126;28;20367;-57
2022/03/07 02:53:14;;;;;;;26.65;17.10;;;77.30;2227.20;;;;;;5070986;28;20166;-57
2022/03/07 02:55:40;;;;;;;30.40;19.67;;;77.30;2227.20;;;;;;5070884;28;20035;-59
2022/03/07 02:58:06;;;;;;;27.10;18.15;;;77.40;2227.20;;;;;;5070876;28;20395;-56
2022/03/07 03:00:32;;;;;;;31.88;20.20;;;77.60;2227.20;;;;;;5070751;28;20033;-56
2022/03/07 03:02:58;;;;;;;26.27;17.83;;;77.60;2227.20;;;;;;5071153;28;20016;-57
2022/03/07 03:05:24;;;;;;;29.27;20.00;;;77.70;2227.20;;;;;;5070593;28;20509;-56
2022/03/07 03:07:51;;;;;;;30.67;19.00;;;102.40;2227.20;;;;;;5070535;28;20074;-57
2022/03/07 03:10:18;;;;;;;30.60;18.85;;;77.70;2227.20;;;;;;5070738;28;20051;-57
2022/03/07 03:12:46;;;;;;;33.20;18.65;;;77.70;2227.20;;;;;;5070707;28;20083;-56
2022/03/07 03:15:11;;;;;;;26.85;17.70;;;77.50;2227.20;;;;;;5070416;28;20060;-56
2022/03/07 03:17:45;;;;;;;39.40;26.55;;;77.50;2227.20;;;;;;5070681;28;20064;-56
2022/03/07 03:20:12;;;;;;;27.50;17.45;;;77.50;2227.20;;;;;;5070438;28;20032;-57
2022/03/07 03:22:40;;;;;;;26.55;17.27;;;77.30;2227.20;;;;;;5070623;28;20036;-56
2022/03/07 03:25:07;;;;;;;28.73;18.23;;;77.40;2227.20;;;;;;5070356;28;20032;-56
2022/03/07 03:27:33;;;;;;;31.58;17.38;;;77.50;2227.20;;;;;;5069994;28;20031;-56
2022/03/07 03:29:59;;;;;;;29.80;18.75;;;77.50;2227.20;;;;;;5070300;28;20127;-56
2022/03/07 03:32:26;;;;;;;23.58;16.00;;;77.50;2227.20;;;;;;5070522;28;20104;-57
2022/03/07 03:34:53;;;;;;;25.17;15.63;;;77.30;2227.20;;;;;;5070196;28;20024;-56
2022/03/07 03:37:18;;;;;;;28.08;15.18;;;77.40;2227.20;;;;;;5070390;28;20064;-56
2022/03/07 03:39:44;;;;;;;27.40;16.55;;;77.40;2227.20;;;;;;5070560;28;20145;-56
2022/03/07 03:42:10;;;;;;;26.23;15.40;;;77.40;2227.20;;;;;;5070078;28;20048;-56
2022/03/07 03:44:36;;;;;;;24.42;14.35;;;77.40;2227.20;;;;;;5070198;28;20024;-57
2022/03/07 03:47:02;;;;;;;28.00;15.60;;;77.40;2227.20;;;;;;5069853;28;20033;-57
2022/03/07 03:49:29;;;;;;;23.77;14.80;;;77.40;2227.20;;;;;;5070118;28;20471;-56
2022/03/07 03:51:56;;;;;;;20.83;13.45;;;77.40;2227.20;;;;;;5069033;28;20029;-57
2022/03/07 03:54:22;;;;;;;23.33;14.07;;;77.50;2227.20;;;;;;5069952;28;20037;-57
2022/03/07 03:56:49;;;;;;;26.55;16.45;;;77.20;2227.20;;;;;;5070033;28;20060;-56
2022/03/07 03:59:15;;;;;;;23.05;13.95;;;77.30;2227.20;;;;;;5070161;28;20024;-56
2022/03/07 04:01:44;;;;;;;26.38;18.38;;;77.30;2227.20;;;;;;5069963;28;20028;-56
2022/03/07 04:04:13;;;;;;;20.48;13.75;;;77.40;2227.20;;;;;;5069867;28;20025;-58
2022/03/07 04:06:40;;;;;;;23.48;15.27;;;77.50;2227.20;;;;;;5069872;28;20024;-57
2022/03/07 04:09:21;;;;;;;22.42;16.23;;;77.40;2227.20;;;;;;5070087;28;20028;-56
2022/03/07 04:11:47;;;;;;;21.73;13.95;;;77.40;2227.20;;;;;;5070093;28;20036;-57
2022/03/07 04:14:14;;;;;;;34.55;31.02;;;77.20;2227.20;;;;;;5070026;28;20390;-56
2022/03/07 04:16:43;;;;;;;24.77;15.73;;;77.20;2227.20;;;;;;5069898;28;20494;-56
2022/03/07 04:19:11;;;;;;;27.13;21.77;;;77.30;2227.20;;;;;;5069899;28;20020;-60
2022/03/07 04:21:39;;;;;;;30.58;23.17;;;77.40;2227.20;;;;;;5069858;28;20036;-55
2022/03/07 04:24:06;;;;;;;28.23;21.67;;;77.40;2227.20;;;;;;5069662;28;20031;-56
2022/03/07 04:26:32;;;;;;;26.52;19.75;;;77.40;2227.20;;;;;;5069570;28;20499;-56
2022/03/07 04:29:00;;;;;;;26.35;19.23;;;77.30;2227.20;;;;;;5069808;28;20111;-55
2022/03/07 04:31:26;;;;;;;29.08;25.95;;;77.40;2227.20;;;;;;5069600;28;20044;-56
2022/03/07 04:33:52;;;;;;;27.73;21.08;;;77.30;2227.20;;;;;;5069546;28;20029;-58
2022/03/07 04:36:21;;;;;;;20.40;14.82;;;77.30;2227.20;;;;;;5069867;28;20028;-55
2022/03/07 04:38:47;;;;;;;30.60;23.73;;;77.30;2227.20;;;;;;5073712;28;20036;-55
2022/03/07 04:41:14;;;;;;;24.60;16.98;;;77.30;2227.20;;;;;;5073583;28;20112;-55
2022/03/07 04:43:40;;;;;;;39.70;35.42;;;77.30;2227.20;;;;;;5073669;28;20024;-56
2022/03/07 04:46:07;;;;;;;32.53;26.35;;;77.30;2227.20;;;;;;5073461;28;20489;-55
2022/03/07 04:48:33;;;;;;;22.45;15.40;;;77.20;2227.20;;;;;;5073469;28;20031;-55
2022/03/07 04:50:59;;;;;;;31.35;26.27;;;77.20;2227.20;;;;;;5073381;28;20127;-55
2022/03/07 04:53:25;;;;;;;26.95;17.52;;;77.20;2227.20;;;;;;5073254;28;20095;-55
2022/03/07 04:55:50;;;;;;;44.47;36.97;;;77.30;2227.20;;;;;;5072977;28;20036;-56
2022/03/07 04:58:16;;;;;;;26.50;19.63;;;77.20;2227.20;;;;;;5073358;28;20043;-55
2022/03/07 05:00:42;;;;;;;29.48;22.38;;;77.20;2227.20;;;;;;5073225;28;20024;-56
2022/03/07 05:03:08;;;;;;;39.97;34.38;;;77.20;2227.20;;;;;;5073255;28;20016;-56
2022/03/07 05:05:33;;;;;;;23.98;16.55;;;77.10;2227.20;;;;;;5072976;28;20017;-55
2022/03/07 05:07:59;;;;;;;40.45;34.75;;;77.20;2227.20;;;;;;5073063;28;20032;-56
2022/03/07 05:10:25;;;;;;;24.63;18.13;;;77.20;2227.20;;;;;;5072989;28;20024;-60
2022/03/07 05:12:51;;;;;;;30.40;21.65;;;77.20;2227.20;;;;;;5072797;28;20497;-57
2022/03/07 05:15:16;;;;;;;36.30;31.20;;;77.10;2227.20;;;;;;5073095;28;20020;-56
2022/03/07 05:17:53;;;;;;;50.92;45.78;;;77.20;2227.20;;;;;;5072802;28;20028;-56
2022/03/07 05:20:20;;;;;;;29.35;24.63;;;77.20;2227.20;;;;;;5073027;28;20107;-56
2022/03/07 05:22:46;;;;;;;24.77;17.17;;;77.20;2227.20;;;;;;5072694;28;20420;-55
2022/03/07 05:25:13;;;;;;;27.83;17.75;;;77.10;2227.20;;;;;;5072547;28;20067;-57
2022/03/07 05:27:40;;;;;;;37.58;33.67;;;77.30;2227.20;;;;;;5072570;28;20029;-56
2022/03/07 05:30:07;;;;;;;30.75;22.60;;;77.30;2227.20;;;;;;5072392;28;20113;-56
2022/03/07 05:32:33;;;;;;;25.83;19.42;;;77.40;2227.20;;;;;;5072367;28;20036;-56
2022/03/07 05:35:00;;;;;;;28.02;18.60;;;77.30;2227.20;;;;;;5072678;28;20028;-57
2022/03/07 05:37:26;;;;;;;32.25;20.63;;;77.40;2227.20;;;;;;5072541;28;20035;-57
2022/03/07 05:39:52;;;;;;;29.70;22.33;;;77.30;2227.20;;;;;;5072155;28;20021;-57
2022/03/07 05:42:18;;;;;;;26.00;17.50;;;77.30;2227.20;;;;;;5072532;28;20485;-57
2022/03/07 05:44:44;;;;;;;27.58;19.95;;;77.20;2227.20;;;;;;5072555;28;20115;-57
2022/03/07 05:47:09;;;;;;;27.60;16.60;;;77.20;2227.20;;;;;;5072488;28;20602;-57
2022/03/07 05:49:35;;;;;;;22.85;14.50;;;77.30;2227.20;;;;;;5071747;28;20033;-56
2022/03/07 05:52:02;;;;;;;25.38;15.93;;;77.50;2227.20;;;;;;5071829;28;20040;-57
2022/03/07 05:54:27;;;;;;;30.50;22.10;;;77.60;2227.20;;;;;;5072290;28;20024;-56
2022/03/07 05:56:53;;;;;;;25.75;16.55;;;77.70;2227.20;;;;;;5071943;28;20027;-58
2022/03/07 05:59:19;;;;;;;26.08;16.38;;;77.70;2227.20;;;;;;5071978;28;20025;-56
2022/03/07 06:01:45;;;;;;;24.00;15.85;;;77.60;2227.20;;;;;;5071951;28;20020;-56
2022/03/07 06:04:10;;;;;;;25.23;14.95;;;77.70;2227.20;;;;;;5071953;28;20070;-57
2022/03/07 06:06:36;;;;;;;27.38;16.80;;;102.40;2227.20;;;;;;5072204;28;20082;-56
2022/03/07 06:09:02;;;;;;;28.42;18.85;;;102.40;2227.20;;;;;;5071881;28;20490;-55
2022/03/07 06:11:28;;;;;;;33.60;20.13;;;102.40;2227.20;;;;;;5072083;28;20068;-56
2022/03/07 06:13:54;;;;;;;35.70;23.40;;;102.50;2227.20;;;;;;5071786;28;20138;-60
2022/03/07 06:16:19;;;;;;;28.38;18.45;;;102.50;2227.20;;;;;;5071655;28;20112;-55
2022/03/07 06:18:45;;;;;;;35.47;22.85;;;102.50;2227.20;;;;;;5071872;28;20052;-59
2022/03/07 06:21:11;;;;;;;31.42;19.33;;;102.70;2227.20;;;;;;5071685;28;20028;-57
2022/03/07 06:23:38;;;;;;;25.70;17.02;;;102.60;2227.20;;;;;;5071803;28;20170;-60
2022/03/07 06:26:05;;;;;;;29.30;20.13;;;102.60;2227.20;;;;;;5071755;28;20113;-56
2022/03/07 06:28:31;;;;;;;23.73;17.15;;;102.50;2227.20;;;;;;5071687;28;20454;-58
2022/03/07 06:30:57;;;;;;;24.77;16.65;;;102.60;2227.20;;;;;;5071517;28;20066;-59
2022/03/07 06:33:23;;;;;;;25.25;16.30;;;102.70;2227.20;;;;;;5071434;28;20021;-62
2022/03/07 06:35:49;;;;;;;24.13;16.45;;;102.50;2227.20;;;;;;5071768;28;20070;-56
2022/03/07 06:38:15;;;;;;;26.33;17.95;;;102.40;2227.20;;;;;;5071722;28;20021;-60
2022/03/07 06:40:41;;;;;;;71.80;64.93;;;102.50;2227.20;;;;;;5071306;28;20375;-56
2022/03/07 06:43:07;;;;;;;43.53;31.02;;;102.50;2227.20;;;;;;5071365;28;20020;-59
2022/03/07 06:45:33;;;;;;;31.83;20.45;;;102.60;2227.20;;;;;;5071108;28;20483;-56
2022/03/07 06:47:59;;;;;;;71.30;47.55;;;102.80;2227.20;;;;;;5071176;28;20478;-56
2022/03/07 06:50:25;;;;;;;52.45;36.38;;;102.80;2227.20;;;;;;5070924;28;20135;-57
2022/03/07 06:52:51;;;;;;;31.60;21.00;;;102.70;2227.20;;;;;;5071123;28;20031;-57
2022/03/07 06:55:17;;;;;;;185.30;115.60;;;102.70;2227.20;;;;;;5071098;28;20032;-57
2022/03/07 06:57:43;;;;;;;306.25;225.02;;;102.80;2227.20;;;;;;5070777;28;20050;-56
2022/03/07 07:00:11;;;;;;;65.30;41.20;;;102.50;2227.20;;;;;;5070296;28;20111;-56
2022/03/07 07:02:37;;;;;;;102.53;64.07;;;102.70;2227.20;;;;;;5070969;28;20024;-57
2022/03/07 07:05:04;;;;;;;32.97;23.35;;;102.70;2227.20;;;;;;5070746;28;20378;-56
2022/03/07 07:07:31;;;;;;;58.15;38.17;;;102.70;2227.20;;;;;;5070616;28;20032;-58
2022/03/07 07:09:57;;;;;;;38.25;24.63;;;102.70;2227.20;;;;;;5070905;28;20078;-56
2022/03/07 07:12:24;;;;;;;31.83;22.73;;;102.50;2227.20;;;;;;5070542;28;20070;-56
2022/03/07 07:14:49;;;;;;;32.38;21.75;;;102.60;2227.20;;;;;;5070811;28;20025;-56
2022/03/07 07:17:17;;;;;;;35.28;30.15;;;102.60;2227.20;;;;;;5070899;28;20368;-57
2022/03/07 07:19:43;;;;;;;31.55;23.00;;;102.90;2227.20;;;;;;5070567;28;20032;-56
2022/03/07 07:22:09;;;;;;;44.50;35.58;;;102.90;2227.20;;;;;;5070701;28;20032;-56
2022/03/07 07:24:35;;;;;;;28.17;19.10;;;103.10;2227.20;;;;;;5070319;28;20167;-56
2022/03/07 07:27:00;;;;;;;32.50;24.38;;;103.20;2227.20;;;;;;5070221;28;20056;-57
2022/03/07 07:29:26;;;;;;;29.63;20.05;;;128.10;2252.80;;;;;;5070368;28;20036;-56
2022/03/07 07:31:52;;;;;;;31.55;19.52;;;128.20;2252.80;;;;;;5070283;28;20040;-57
2022/03/07 07:34:19;;;;;;;29.52;19.13;;;128.40;2252.80;;;;;;5070542;28;20024;-58
2022/03/07 07:36:44;;;;;;;27.08;17.60;;;128.50;2252.80;;;;;;5070760;28;20024;-58
2022/03/07 07:39:10;;;;;;;29.00;19.90;;;128.50;2252.80;;;;;;5070075;28;20455;-57
2022/03/07 07:41:36;;;;;;;35.03;21.80;;;128.50;2252.80;;;;;;5070252;28;20032;-56
2022/03/07 07:44:02;;;;;;;32.03;21.35;;;128.50;2252.80;;;;;;5070108;28;20020;-56
2022/03/07 07:46:28;;;;;;;28.23;18.58;;;128.70;2252.80;;;;;;5070561;28;20107;-56
2022/03/07 07:48:54;;;;;;;29.77;21.13;;;153.60;2252.80;;;;;;5070222;28;20059;-61
2022/03/07 07:51:20;;;;;;;56.70;42.30;;;153.70;2252.80;;;;;;5070040;28;20059;-57
2022/03/07 07:53:46;;;;;;;30.92;20.77;;;128.50;2252.80;;;;;;5070511;28;20506;-56
2022/03/07 07:56:12;;;;;;;27.90;18.55;;;128.50;2252.80;;;;;;5069873;28;20429;-57
2022/03/07 07:58:37;;;;;;;27.23;18.73;;;128.60;2252.80;;;;;;5070218;28;20079;-59
2022/03/07 08:01:04;;;;;;;26.73;18.17;;;128.50;2252.80;;;;;;5070257;28;20028;-56
2022/03/07 08:03:33;;;;;;;25.98;17.83;;;128.80;2252.80;;;;;;5070192;28;20108;-60
2022/03/07 08:05:59;;;;;;;25.55;16.73;;;128.50;2252.80;;;;;;5070260;28;20025;-56
2022/03/07 08:08:25;;;;;;;24.73;15.57;;;128.60;2252.80;;;;;;5070319;28;20056;-56
2022/03/07 08:10:50;;;;;;;25.90;17.67;;;128.90;2252.80;;;;;;5068417;28;20068;-58
2022/03/07 08:13:16;;;;;;;26.83;18.35;;;153.70;2252.80;;;;;;5073804;28;20032;-56
2022/03/07 08:15:42;;;;;;;29.45;19.63;;;153.90;2252.80;;;;;;5074290;28;20036;-57
2022/03/07 08:18:08;;;;;;;48.72;37.53;;;154.20;2252.80;;;;;;5074193;28;20103;-58
2022/03/07 08:20:34;;;;;;;33.80;20.40;;;179.40;2252.80;;;;;;5073954;28;20389;-56
2022/03/07 08:23:00;;;;;;;31.88;21.13;;;179.20;2252.80;;;;;;5073860;28;20387;-56
2022/03/07 08:25:26;;;;;;;28.13;19.73;;;179.30;2252.80;;;;;;5072583;28;20028;-56
2022/03/07 08:27:53;;;;;;;29.73;20.83;;;179.50;2252.80;;;;;;5073415;28;20078;-59
2022/03/07 08:30:24;;;;;;;28.65;18.95;;;179.50;2252.80;;;;;;5073446;28;20044;-56
2022/03/07 08:32:50;;;;;;;36.40;23.60;;;179.50;2252.80;;;;;;5073671;28;20028;-58
2022/03/07 08:35:17;;;;;;;27.02;18.83;;;179.40;2252.80;;;;;;5073880;28;20027;-57
2022/03/07 08:37:45;;;;;;;34.03;23.65;;;179.60;2252.80;;;;;;5073503;28;20115;-58
2022/03/07 08:40:13;;;;;;;39.92;29.73;;;179.50;2252.80;;;;;;5073410;28;20024;-54
2022/03/07 08:42:39;;;;;;;31.40;23.05;;;179.70;2252.80;;;;;;5073533;28;20459;-56
2022/03/07 08:45:07;;;;;;;25.92;21.27;;;179.70;2252.80;;;;;;5073092;28;20029;-55
2022/03/07 08:47:34;;;;;;;30.55;24.77;;;179.80;2252.80;;;;;;5072857;28;20503;-55
2022/03/07 08:50:00;;;;;;;23.52;20.02;;;179.80;2252.80;;;;;;5072760;28;20483;-54
2022/03/07 08:52:26;;;;;;;25.27;19.45;;;179.90;2252.80;;;;;;5072775;28;20233;-56
2022/03/07 08:54:51;;;;;;;23.38;19.08;;;180.10;2252.80;;;;;;5072546;28;20021;-58
2022/03/07 08:57:17;;;;;;;21.33;15.52;;;180.10;2252.80;;;;;;5072721;28;20103;-55
2022/03/07 08:59:43;;;;;;;37.78;30.17;;;179.80;2252.80;;;;;;5072773;28;20025;-56
2022/03/07 09:02:10;;;;;;;27.30;20.08;;;179.90;2252.80;;;;;;5072406;28;20021;-55
2022/03/07 09:04:37;;;;;;;33.35;26.98;;;180.00;2252.80;;;;;;5073136;28;20474;-58
2022/03/07 09:07:03;;;;;;;28.95;23.42;;;179.80;2252.80;;;;;;5072981;28;20032;-58
2022/03/07 09:09:29;;;;;;;25.58;19.50;;;179.40;2252.80;;;;;;5073027;28;20024;-56
2022/03/07 09:11:55;;;;;;;23.08;16.80;;;179.40;2252.80;;;;;;5073005;28;20024;-55
2022/03/07 09:14:21;;;;;;;21.60;16.63;;;179.60;2252.80;;;;;;5072810;28;20021;-55
2022/03/07 09:16:47;;;;;;;26.25;18.13;;;179.80;2252.80;;;;;;5073197;28;20035;-59
2022/03/07 09:19:12;;;;;;;21.33;15.80;;;179.50;2252.80;;;;;;5072806;28;20115;-58
2022/03/07 09:21:38;;;;;;;22.35;15.88;;;179.40;2252.80;;;;;;5072919;28;20054;-59
2022/03/07 09:24:05;;;;;;;26.58;17.17;;;179.60;2252.80;;;;;;5072240;28;20033;-58
2022/03/07 09:26:30;;;;;;;27.70;17.92;;;179.50;2252.80;;;;;;5072495;28;20024;-56
2022/03/07 09:28:56;;;;;;;23.05;15.18;;;179.50;2252.80;;;;;;5072981;28;20536;-57
2022/03/07 09:31:22;;;;;;;23.70;17.13;;;179.40;2252.80;;;;;;5072253;28;20398;-56
2022/03/07 09:33:48;;;;;;;20.88;15.23;;;179.30;2252.80;;;;;;5072594;28;20020;-56
2022/03/07 09:36:13;;;;;;;27.48;19.02;;;154.50;2252.80;;;;;;5072521;28;20402;-59
2022/03/07 09:38:40;;;;;;;23.05;17.20;;;179.30;2252.80;;;;;;5072612;28;20110;-57
2022/03/07 09:41:06;;;;;;;22.48;16.08;;;179.30;2252.80;;;;;;5072606;28;20025;-56
2022/03/07 09:43:32;;;;;;;25.48;18.40;;;179.20;2252.80;;;;;;5072300;28;20382;-58
2022/03/07 09:45:58;;;;;;;23.73;15.90;;;154.50;2252.80;;;;;;5072644;28;20028;-56
2022/03/07 09:48:25;;;;;;;22.63;16.75;;;179.20;2252.80;;;;;;5072480;28;20411;-56
2022/03/07 09:50:51;;;;;;;30.38;22.10;;;179.40;2252.80;;;;;;5072185;28;20051;-56
2022/03/07 09:53:18;;;;;;;29.42;19.05;;;179.40;2252.80;;;;;;5072388;28;20524;-56
2022/03/07 09:55:45;;;;;;;32.10;18.70;;;179.40;2252.80;;;;;;5072113;28;20032;-59
2022/03/07 09:58:12;;;;;;;22.17;16.27;;;179.20;2252.80;;;;;;5072070;28;20056;-56
2022/03/07 10:00:41;;;;;;;22.08;15.88;;;154.40;2252.80;;;;;;5072217;28;20592;-57
2022/03/07 10:03:12;;;;;;;24.23;17.38;;;154.50;2252.80;;;;;;5072264;28;20082;-56
2022/03/07 10:05:46;;;;;;;38.30;25.98;;;179.20;2252.80;;;;;;5071900;28;20025;-58
2022/03/07 10:08:25;;;;;;;22.75;16.60;;;179.30;2252.80;;;;;;5069980;28;20028;-55
2022/03/07 10:10:52;;;;;;;24.73;17.48;;;154.40;2252.80;;;;;;5070335;28;20071;-56
2022/03/07 10:13:19;;;;;;;24.33;16.00;;;154.30;2252.80;;;;;;5070462;28;20107;-57
2022/03/07 10:16:00;;;;;;;27.23;17.58;;;154.40;2252.80;;;;;;5070359;28;20081;-57
2022/03/07 10:18:27;;;;;;;22.02;14.82;;;154.50;2252.80;;;;;;5070472;28;20039;-56
2022/03/07 10:20:55;;;;;;;25.02;17.40;;;154.50;2252.80;;;;;;5069714;28;20027;-55
2022/03/07 10:23:25;;;;;;;24.20;16.25;;;179.20;2252.80;;;;;;5069967;28;20024;-56
2022/03/07 10:25:52;;;;;;;29.27;20.90;;;154.50;2252.80;;;;;;5069921;28;20508;-58
2022/03/07 10:28:18;;;;;;;34.78;25.77;;;154.50;2252.80;;;;;;5070843;28;20032;-62
2022/03/07 10:30:44;;;;;;;24.67;17.08;;;154.50;2252.80;;;;;;5070870;28;20075;-59
2022/03/07 10:33:13;;;;;;;26.50;20.63;;;154.50;2252.80;;;;;;5071393;28;20052;-58
2022/03/07 10:35:42;;;;;;;58.25;52.67;;;179.20;2252.80;;;;;;5070013;28;20060;-59
2022/03/07 10:38:22;;;;;;;24.42;18.92;;;179.20;2252.80;;;;;;5070424;28;20070;-60
2022/03/07 10:40:52;;;;;;;28.15;21.25;;;179.20;2252.80;;;;;;5071525;28;20028;-57
2022/03/07 10:43:19;;;;;;;23.33;17.17;;;154.50;2252.80;;;;;;5071957;28;20124;-58
2022/03/07 10:45:50;;;;;;;28.15;18.88;;;179.40;2252.80;;;;;;5072145;28;20040;-61
2022/03/07 10:48:18;;;;;;;29.40;19.67;;;154.50;2252.80;;;;;;5073010;28;20028;-56
2022/03/07 10:50:49;;;;;;;29.75;20.58;;;154.30;2252.80;;;;;;5073121;28;20073;-57
2022/03/07 10:53:14;;;;;;;23.48;17.33;;;154.00;2252.80;;;;;;5072255;28;20190;-57
2022/03/07 10:55:40;;;;;;;26.48;19.15;;;154.10;2252.80;;;;;;5071056;28;20099;-59
2022/03/07 10:58:14;;;;;;;28.90;22.23;;;154.20;2252.80;;;;;;5071418;28;20055;-56
2022/03/07 11:00:54;;;;;;;29.30;22.73;;;154.00;2252.80;;;;;;5070171;28;20029;-60
2022/03/07 11:03:33;;;;;;;23.98;20.63;;;154.10;2252.80;;;;;;5069983;28;20055;-60
2022/03/07 11:06:00;;;;;;;25.15;17.75;;;154.10;2252.80;;;;;;5069765;28;20032;-56
2022/03/07 11:08:26;;;;;;;26.63;17.50;;;154.10;2252.80;;;;;;5069671;28;20025;-55
2022/03/07 11:10:55;;;;;;;27.60;18.92;;;154.20;2252.80;;;;;;5069305;28;20044;-56
2022/03/07 11:13:26;;;;;;;23.92;17.40;;;154.30;2252.80;;;;;;5068998;28;20048;-57
2022/03/07 11:15:55;;;;;;;23.25;16.30;;;154.40;2252.80;;;;;;5069162;28;20032;-58
2022/03/07 11:18:22;;;;;;;21.77;15.88;;;154.50;2252.80;;;;;;5069094;28;20025;-57
2022/03/07 11:20:48;;;;;;;23.95;17.27;;;179.20;2252.80;;;;;;5069552;28;20039;-60
2022/03/07 11:23:18;;;;;;;26.10;17.50;;;179.40;2252.80;;;;;;5069374;28;20035;-56
2022/03/07 11:25:49;;;;;;;23.20;15.60;;;179.30;2252.80;;;;;;5068226;28;20044;-59
2022/03/07 11:28:16;;;;;;;24.98;17.80;;;179.30;2252.80;;;;;;5068781;28;20039;-57
2022/03/07 11:30:43;;;;;;;23.70;16.80;;;179.40;2252.80;;;;;;5068605;28;20048;-56
2022/03/07 11:33:16;;;;;;;26.45;17.85;;;179.30;2252.80;;;;;;5068862;28;20059;-56
2022/03/07 11:35:44;;;;;;;80.45;48.88;;;179.40;2252.80;;;;;;5068783;28;20036;-55
2022/03/07 11:38:35;;;;;;;25.88;19.35;;;154.50;2252.80;;;;;;5068289;28;20056;-57
2022/03/07 11:41:07;;;;;;;32.35;21.02;;;154.30;2252.80;;;;;;5068626;28;20139;-56
2022/03/07 11:43:48;;;;;;;27.42;18.17;;;154.10;2252.80;;;;;;5068517;28;20116;-56
2022/03/07 11:46:35;;;;;;;30.17;20.67;;;154.10;2252.80;;;;;;5068381;28;20024;-56
2022/03/07 11:49:03;;;;;;;38.95;23.77;;;153.80;2252.80;;;;;;5068415;28;20039;-56
2022/03/07 11:51:31;;;;;;;33.38;23.23;;;153.80;2252.80;;;;;;5068131;28;20037;-56
2022/03/07 11:53:58;;;;;;;46.67;31.13;;;153.70;2252.80;;;;;;5068647;28;20040;-57
2022/03/07 11:56:29;;;;;;;39.15;26.52;;;128.80;2252.80;;;;;;5068540;28;20158;-56
2022/03/07 11:58:57;;;;;;;44.03;28.50;;;128.90;2252.80;;;;;;5068677;28;20434;-56
2022/03/07 12:01:24;;;;;;;40.83;25.45;;;128.70;2252.80;;;;;;5068432;28;20032;-58